createdAt,value
2018-12-25T00:00:04.710Z,51.20
2018-12-25T00:02:44.315Z,51.20
2018-12-25T00:05:23.820Z,51.30
2018-12-25T00:08:03.409Z,51.20
2018-12-25T00:10:42.931Z,51.20
2018-12-25T00:13:22.464Z,51.40
2018-12-25T00:16:01.971Z,51.50
2018-12-25T00:18:41.324Z,51.40
2018-12-25T00:21:20.929Z,51.30
2018-12-25T00:24:00.480Z,51.20
2018-12-25T00:26:40.127Z,51.20
2018-12-25T00:29:19.656Z,51.30
2018-12-25T00:31:59.307Z,51.20
2018-12-25T00:34:39.016Z,51.10
2018-12-25T00:37:18.523Z,51.10
2018-12-25T00:39:57.928Z,50.90
2018-12-25T00:42:37.414Z,51.00
2018-12-25T00:45:18.341Z,50.90
2018-12-25T00:47:58.207Z,50.90
2018-12-25T00:50:37.655Z,50.90
2018-12-25T00:53:17.287Z,51.10
2018-12-25T00:55:57.494Z,51.20
2018-12-25T00:58:36.959Z,51.20
2018-12-25T01:01:16.655Z,51.20
2018-12-25T01:03:56.468Z,51.30
2018-12-25T01:06:36.095Z,51.30
2018-12-25T01:09:15.730Z,51.30
2018-12-25T01:11:55.212Z,51.20
2018-12-25T01:14:35.046Z,51.20
2018-12-25T01:17:14.612Z,51.10
2018-12-25T01:19:53.908Z,51.10
2018-12-25T01:22:33.625Z,51.00
2018-12-25T01:25:13.307Z,51.00
2018-12-25T01:27:52.551Z,51.00
2018-12-25T01:30:31.886Z,51.00
2018-12-25T01:33:11.631Z,50.90
2018-12-25T01:35:51.268Z,51.00
2018-12-25T01:38:30.627Z,50.90
2018-12-25T01:41:10.055Z,50.70
2018-12-25T01:43:49.724Z,50.90
2018-12-25T01:46:29.411Z,51.10
2018-12-25T01:49:09.085Z,51.10
2018-12-25T01:51:48.623Z,50.90
2018-12-25T01:54:27.910Z,50.90
2018-12-25T01:57:07.561Z,50.90
2018-12-25T01:59:46.928Z,50.90
2018-12-25T02:02:26.366Z,50.80
2018-12-25T02:05:05.908Z,50.80
2018-12-25T02:07:45.501Z,50.60
2018-12-25T02:10:25.099Z,50.50
2018-12-25T02:13:04.335Z,50.50
2018-12-25T02:15:43.985Z,50.60
2018-12-25T02:18:23.612Z,50.50
2018-12-25T02:21:03.044Z,50.50
2018-12-25T02:23:42.971Z,50.80
2018-12-25T02:26:22.731Z,50.80
2018-12-25T02:29:02.200Z,50.90
2018-12-25T02:31:41.796Z,50.80
2018-12-25T02:34:21.264Z,50.60
2018-12-25T02:37:00.548Z,50.70
2018-12-25T02:39:40.672Z,50.60
2018-12-25T02:42:20.117Z,50.70
2018-12-25T02:44:59.403Z,50.70
2018-12-25T02:47:38.747Z,50.40
2018-12-25T02:50:18.196Z,50.60
2018-12-25T02:52:57.524Z,51.00
2018-12-25T02:55:36.902Z,50.30
2018-12-25T02:58:16.163Z,50.20
2018-12-25T03:00:46.359Z,50.40
2018-12-25T03:03:12.846Z,50.40
2018-12-25T03:05:40.320Z,50.50
2018-12-25T03:08:07.789Z,50.50
2018-12-25T03:10:35.252Z,50.40
2018-12-25T03:13:02.719Z,50.30
2018-12-25T03:15:30.214Z,50.30
2018-12-25T03:17:57.674Z,50.20
2018-12-25T03:20:25.142Z,50.20
2018-12-25T03:22:52.606Z,50.00
2018-12-25T03:25:20.070Z,50.00
2018-12-25T03:27:47.561Z,50.10
2018-12-25T03:30:15.092Z,50.00
2018-12-25T03:32:42.583Z,50.10
2018-12-25T03:35:10.034Z,50.10
2018-12-25T03:37:37.507Z,50.10
2018-12-25T03:40:05.736Z,50.20
2018-12-25T03:42:33.202Z,50.30
2018-12-25T03:45:00.668Z,50.40
2018-12-25T03:47:28.131Z,50.50
2018-12-25T03:49:55.584Z,50.50
2018-12-25T03:52:23.063Z,50.50
2018-12-25T03:54:50.530Z,50.50
2018-12-25T03:57:18.017Z,50.60
2018-12-25T03:59:45.485Z,51.40
2018-12-25T04:02:12.961Z,50.70
2018-12-25T04:04:40.426Z,51.20
2018-12-25T04:07:07.969Z,50.60
2018-12-25T04:09:35.450Z,50.40
2018-12-25T04:12:02.914Z,50.50
2018-12-25T04:14:30.388Z,50.50
2018-12-25T04:16:57.856Z,50.50
2018-12-25T04:19:25.332Z,50.50
2018-12-25T04:21:52.797Z,50.40
2018-12-25T04:24:20.270Z,50.40
2018-12-25T04:26:47.763Z,50.20
2018-12-25T04:29:15.229Z,50.20
2018-12-25T04:31:42.693Z,50.30
2018-12-25T04:34:10.191Z,50.40
2018-12-25T04:36:37.726Z,50.50
2018-12-25T04:39:05.961Z,50.50
2018-12-25T04:41:33.436Z,50.40
2018-12-25T04:44:00.897Z,50.30
2018-12-25T04:46:28.367Z,50.20
2018-12-25T04:48:55.834Z,50.20
2018-12-25T04:51:23.303Z,50.20
2018-12-25T04:53:50.767Z,51.00
2018-12-25T04:56:18.239Z,50.20
2018-12-25T04:58:45.708Z,50.20
2018-12-25T05:01:13.274Z,50.10
2018-12-25T05:03:40.740Z,50.10
2018-12-25T05:06:08.209Z,50.10
2018-12-25T05:08:35.673Z,50.20
2018-12-25T05:11:03.142Z,50.20
2018-12-25T05:13:30.610Z,50.30
2018-12-25T05:15:58.076Z,50.40
2018-12-25T05:18:25.547Z,50.40
2018-12-25T05:20:53.035Z,50.30
2018-12-25T05:23:20.489Z,50.30
2018-12-25T05:25:47.983Z,50.20
2018-12-25T05:28:15.444Z,50.20
2018-12-25T05:30:42.901Z,50.10
2018-12-25T05:33:10.369Z,50.00
2018-12-25T05:35:37.833Z,50.00
2018-12-25T05:38:05.302Z,50.00
2018-12-25T05:40:32.774Z,50.00
2018-12-25T05:43:00.246Z,50.00
2018-12-25T05:45:27.709Z,50.00
2018-12-25T05:47:55.182Z,49.90
2018-12-25T05:50:22.645Z,49.80
2018-12-25T05:52:50.118Z,50.00
2018-12-25T05:55:19.389Z,50.10
2018-12-25T05:57:46.768Z,50.20
2018-12-25T06:00:14.233Z,50.00
2018-12-25T06:02:41.710Z,49.90
2018-12-25T06:05:09.176Z,49.90
2018-12-25T06:07:36.658Z,49.80
2018-12-25T06:10:04.123Z,50.00
2018-12-25T06:12:31.622Z,49.80
2018-12-25T06:14:59.085Z,49.90
2018-12-25T06:17:26.570Z,49.80
2018-12-25T06:19:54.046Z,49.90
2018-12-25T06:22:21.522Z,50.20
2018-12-25T06:24:48.993Z,50.00
2018-12-25T06:27:16.461Z,50.00
2018-12-25T06:29:43.934Z,50.10
2018-12-25T06:32:11.393Z,50.20
2018-12-25T06:34:38.866Z,50.20
2018-12-25T06:37:06.324Z,50.00
2018-12-25T06:39:33.792Z,50.10
2018-12-25T06:42:01.264Z,50.10
2018-12-25T06:44:28.729Z,50.60
2018-12-25T06:46:56.209Z,50.10
2018-12-25T06:49:23.673Z,50.00
2018-12-25T06:51:51.128Z,49.80
2018-12-25T06:54:18.602Z,49.80
2018-12-25T06:56:46.145Z,49.90
2018-12-25T06:59:13.629Z,49.90
2018-12-25T07:01:41.094Z,49.80
2018-12-25T07:04:08.571Z,49.90
2018-12-25T07:06:36.033Z,49.80
2018-12-25T07:09:05.382Z,49.60
2018-12-25T07:11:32.846Z,49.80
2018-12-25T07:14:00.314Z,49.70
2018-12-25T07:16:27.786Z,49.80
2018-12-25T07:18:55.250Z,50.00
2018-12-25T07:21:22.758Z,50.00
2018-12-25T07:23:50.216Z,50.00
2018-12-25T07:26:37.098Z,49.80
2018-12-25T07:29:04.564Z,49.40
2018-12-25T07:31:32.029Z,49.80
2018-12-25T07:33:59.798Z,49.90
2018-12-25T07:36:27.278Z,49.80
2018-12-25T07:38:54.740Z,49.90
2018-12-25T07:41:22.210Z,50.00
2018-12-25T07:43:49.673Z,49.90
2018-12-25T07:46:17.142Z,49.70
2018-12-25T07:48:44.658Z,49.50
2018-12-25T07:51:20.537Z,49.70
2018-12-25T07:53:41.607Z,49.80
2018-12-25T07:56:09.084Z,49.80
2018-12-25T07:58:36.538Z,49.90
2018-12-25T08:01:04.017Z,50.00
2018-12-25T08:03:31.477Z,49.80
2018-12-25T08:05:58.963Z,49.70
2018-12-25T08:08:26.425Z,49.70
2018-12-25T08:10:53.948Z,49.50
2018-12-25T08:13:21.409Z,49.70
2018-12-25T08:15:48.881Z,49.70
2018-12-25T08:18:16.350Z,49.70
2018-12-25T08:20:43.957Z,49.80
2018-12-25T08:23:11.529Z,49.80
2018-12-25T08:25:39.087Z,49.80
2018-12-25T08:28:06.544Z,49.80
2018-12-25T08:30:34.025Z,49.90
2018-12-25T08:33:01.501Z,50.10
2018-12-25T08:35:28.958Z,50.80
2018-12-25T08:37:56.435Z,50.20
2018-12-25T08:40:23.936Z,50.20
2018-12-25T08:42:51.398Z,50.50
2018-12-25T08:45:18.870Z,50.30
2018-12-25T08:47:46.333Z,50.20
2018-12-25T08:50:13.802Z,50.00
2018-12-25T08:52:41.293Z,50.00
2018-12-25T08:55:08.759Z,50.40
2018-12-25T08:57:36.249Z,50.90
2018-12-25T09:00:05.348Z,50.80
2018-12-25T09:02:32.816Z,50.40
2018-12-25T09:05:00.288Z,50.50
2018-12-25T09:07:27.764Z,50.20
2018-12-25T09:09:55.228Z,50.40
2018-12-25T09:12:22.767Z,50.60
2018-12-25T09:14:50.229Z,50.70
2018-12-25T09:17:17.716Z,50.70
2018-12-25T09:19:45.218Z,51.20
2018-12-25T09:22:12.804Z,52.00
2018-12-25T09:24:40.494Z,51.70
2018-12-25T09:27:35.821Z,51.80
2018-12-25T09:30:03.649Z,51.70
2018-12-25T09:32:31.198Z,52.20
2018-12-25T09:34:58.774Z,52.10
2018-12-25T09:37:26.244Z,52.10
2018-12-25T09:39:53.752Z,52.30
2018-12-25T09:42:21.216Z,52.50
2018-12-25T09:44:48.703Z,52.70
2018-12-25T09:47:16.166Z,52.30
2018-12-25T09:49:43.688Z,52.00
2018-12-25T09:52:11.182Z,51.70
2018-12-25T09:54:38.965Z,51.50
2018-12-25T09:57:06.482Z,51.40
2018-12-25T09:59:33.976Z,51.40
2018-12-25T10:02:01.430Z,51.70
2018-12-25T10:04:28.907Z,51.90
2018-12-25T10:06:56.370Z,51.80
2018-12-25T10:09:23.832Z,51.40
2018-12-25T10:11:51.342Z,51.20
2018-12-25T10:14:18.807Z,51.30
2018-12-25T10:16:46.280Z,51.10
2018-12-25T10:19:13.740Z,51.30
2018-12-25T10:21:41.237Z,51.10
2018-12-25T10:24:08.709Z,51.10
2018-12-25T10:26:36.434Z,51.40
2018-12-25T10:29:03.956Z,52.00
2018-12-25T10:31:31.447Z,52.30
2018-12-25T10:33:58.937Z,52.10
2018-12-25T10:36:26.479Z,52.40
2018-12-25T10:38:54.001Z,52.60
2018-12-25T10:41:21.465Z,52.70
2018-12-25T10:43:48.960Z,52.80
2018-12-25T10:46:16.495Z,52.60
2018-12-25T10:48:43.962Z,52.80
2018-12-25T10:51:11.445Z,52.80
2018-12-25T10:53:39.104Z,52.80
2018-12-25T10:56:06.561Z,52.70
2018-12-25T10:58:34.046Z,52.60
2018-12-25T11:01:01.873Z,52.60
2018-12-25T11:03:29.368Z,52.60
2018-12-25T11:05:56.834Z,52.70
2018-12-25T11:08:24.308Z,52.50
2018-12-25T11:10:51.835Z,52.40
2018-12-25T11:13:19.310Z,52.50
2018-12-25T11:15:46.789Z,52.60
2018-12-25T11:18:14.341Z,52.60
2018-12-25T11:20:41.873Z,52.60
2018-12-25T11:23:09.352Z,52.90
2018-12-25T11:25:36.817Z,53.00
2018-12-25T11:28:04.303Z,53.00
2018-12-25T11:30:31.766Z,52.80
2018-12-25T11:32:59.250Z,52.80
2018-12-25T11:35:26.822Z,53.30
2018-12-25T11:37:54.300Z,52.60
2018-12-25T11:40:21.761Z,52.80
2018-12-25T11:42:49.241Z,52.80
2018-12-25T11:45:16.753Z,53.00
2018-12-25T11:47:44.342Z,53.10
2018-12-25T11:50:11.812Z,53.20
2018-12-25T11:52:39.293Z,53.10
2018-12-25T11:55:06.762Z,53.10
2018-12-25T11:57:34.356Z,53.20
2018-12-25T12:00:01.822Z,53.30
2018-12-25T12:02:29.281Z,53.20
2018-12-25T12:04:58.041Z,53.30
2018-12-25T12:07:25.510Z,53.40
2018-12-25T12:09:52.973Z,53.40
2018-12-25T12:12:20.484Z,53.20
2018-12-25T12:14:47.950Z,53.40
2018-12-25T12:17:15.413Z,53.10
2018-12-25T12:19:42.894Z,53.20
2018-12-25T12:22:10.367Z,53.30
2018-12-25T12:24:37.833Z,53.20
2018-12-25T12:27:05.344Z,53.20
2018-12-25T12:29:32.834Z,53.30
2018-12-25T12:32:00.298Z,53.30
2018-12-25T12:34:27.772Z,53.40
2018-12-25T12:36:55.318Z,53.40
2018-12-25T12:39:22.897Z,53.30
2018-12-25T12:41:50.430Z,53.30
2018-12-25T12:44:17.993Z,53.40
2018-12-25T12:46:45.470Z,53.20
2018-12-25T12:49:12.949Z,53.20
2018-12-25T12:51:40.413Z,53.30
2018-12-25T12:54:07.873Z,53.40
2018-12-25T12:56:35.343Z,53.20
2018-12-25T12:59:02.809Z,53.10
2018-12-25T13:01:30.296Z,52.90
2018-12-25T13:03:57.863Z,52.80
2018-12-25T13:06:25.332Z,52.70
2018-12-25T13:08:52.792Z,52.60
2018-12-25T13:11:20.273Z,52.60
2018-12-25T13:13:47.737Z,52.50
2018-12-25T13:16:15.248Z,52.60
2018-12-25T13:18:42.818Z,52.60
2018-12-25T13:21:10.298Z,52.60
2018-12-25T13:23:37.762Z,52.80
2018-12-25T13:26:05.306Z,52.30
2018-12-25T13:28:32.774Z,52.60
2018-12-25T13:31:00.303Z,52.30
2018-12-25T13:33:27.766Z,52.30
2018-12-25T13:35:55.239Z,52.60
2018-12-25T13:38:22.702Z,52.90
2018-12-25T13:40:50.220Z,52.70
2018-12-25T13:43:17.678Z,52.30
2018-12-25T13:45:45.144Z,52.40
2018-12-25T13:48:12.610Z,52.70
2018-12-25T13:50:40.176Z,52.30
2018-12-25T13:53:07.641Z,52.40
2018-12-25T13:55:35.105Z,52.70
2018-12-25T13:58:02.568Z,52.50
2018-12-25T14:00:30.040Z,52.40
2018-12-25T14:02:57.497Z,52.40
2018-12-25T14:05:24.967Z,52.30
2018-12-25T14:07:52.438Z,52.40
2018-12-25T14:10:19.915Z,52.50
2018-12-25T14:12:47.405Z,52.50
2018-12-25T14:15:14.962Z,52.70
2018-12-25T14:17:42.426Z,52.70
2018-12-25T14:20:09.993Z,53.50
2018-12-25T14:22:37.470Z,52.80
2018-12-25T14:25:05.314Z,52.60
2018-12-25T14:27:32.800Z,52.70
2018-12-25T14:30:00.257Z,52.90
2018-12-25T14:32:27.728Z,52.80
2018-12-25T14:34:55.202Z,52.80
2018-12-25T14:37:22.666Z,52.40
2018-12-25T14:39:50.131Z,52.40
2018-12-25T14:42:17.589Z,52.30
2018-12-25T14:44:46.289Z,52.30
2018-12-25T14:47:13.714Z,52.20
2018-12-25T14:49:41.194Z,52.30
2018-12-25T14:52:08.663Z,52.40
2018-12-25T14:54:36.274Z,52.30
2018-12-25T14:57:03.742Z,52.30
2018-12-25T14:59:31.246Z,52.60
2018-12-25T15:01:58.761Z,52.70
2018-12-25T15:04:26.318Z,52.70
2018-12-25T15:06:53.779Z,52.70
2018-12-25T15:09:21.246Z,53.30
2018-12-25T15:11:48.717Z,52.80
2018-12-25T15:14:16.195Z,52.90
2018-12-25T15:16:43.765Z,52.60
2018-12-25T15:19:11.271Z,52.80
2018-12-25T15:21:38.737Z,52.90
2018-12-25T15:24:06.233Z,52.80
2018-12-25T15:26:33.699Z,52.90
2018-12-25T15:29:01.169Z,52.90
2018-12-25T15:31:28.873Z,52.80
2018-12-25T15:33:56.345Z,52.90
2018-12-25T15:36:56.817Z,52.90
2018-12-25T15:39:24.286Z,52.80
2018-12-25T15:41:51.751Z,52.80
2018-12-25T15:44:19.219Z,52.70
2018-12-25T15:46:48.124Z,52.90
2018-12-25T15:49:15.940Z,53.10
2018-12-25T15:51:43.782Z,53.20
2018-12-25T15:54:11.395Z,53.00
2018-12-25T15:56:38.910Z,52.60
2018-12-25T15:59:06.483Z,52.30
2018-12-25T16:01:34.226Z,52.30
2018-12-25T16:04:01.699Z,52.30
2018-12-25T16:06:29.255Z,52.40
2018-12-25T16:08:56.739Z,53.20
2018-12-25T16:11:24.198Z,52.70
2018-12-25T16:13:51.807Z,52.80
2018-12-25T16:16:19.275Z,52.80
2018-12-25T16:18:46.742Z,52.90
2018-12-25T16:21:14.572Z,53.00
2018-12-25T16:23:45.526Z,52.90
2018-12-25T16:26:11.294Z,53.00
2018-12-25T16:28:38.769Z,53.00
2018-12-25T16:31:06.239Z,53.10
2018-12-25T16:33:33.886Z,53.20
2018-12-25T16:36:01.358Z,53.00
2018-12-25T16:38:28.829Z,52.80
2018-12-25T16:40:56.297Z,53.20
2018-12-25T16:43:24.087Z,52.70
2018-12-25T16:45:51.565Z,52.20
2018-12-25T16:48:19.057Z,52.70
2018-12-25T16:50:46.501Z,52.60
2018-12-25T16:53:14.043Z,52.40
2018-12-25T16:55:41.516Z,52.30
2018-12-25T16:58:09.198Z,52.20
2018-12-25T17:00:36.717Z,52.20
2018-12-25T17:03:04.182Z,52.20
2018-12-25T17:05:31.650Z,52.20
2018-12-25T17:07:59.122Z,52.20
2018-12-25T17:10:26.690Z,52.20
2018-12-25T17:12:56.216Z,52.50
2018-12-25T17:15:23.409Z,52.70
2018-12-25T17:17:50.897Z,52.60
2018-12-25T17:20:18.487Z,52.60
2018-12-25T17:22:45.990Z,52.30
2018-12-25T17:25:13.454Z,52.50
2018-12-25T17:27:40.923Z,52.40
2018-12-25T17:30:08.493Z,52.30
2018-12-25T17:32:36.060Z,52.30
2018-12-25T17:35:03.664Z,52.40
2018-12-25T17:37:31.169Z,52.40
2018-12-25T17:39:58.640Z,52.40
2018-12-25T17:42:26.107Z,52.30
2018-12-25T17:44:53.720Z,52.50
2018-12-25T17:47:21.185Z,52.70
2018-12-25T17:49:48.657Z,52.50
2018-12-25T17:52:16.137Z,52.60
2018-12-25T17:54:43.619Z,52.60
2018-12-25T17:57:11.150Z,52.50
2018-12-25T17:59:40.692Z,52.60
2018-12-25T18:02:08.312Z,52.70
2018-12-25T18:04:35.846Z,52.90
2018-12-25T18:07:03.310Z,52.70
2018-12-25T18:09:30.778Z,52.40
2018-12-25T18:11:58.257Z,52.30
2018-12-25T18:14:25.907Z,52.20
2018-12-25T18:16:53.550Z,52.00
2018-12-25T18:19:21.021Z,51.90
2018-12-25T18:21:48.487Z,51.90
2018-12-25T18:24:19.383Z,52.00
2018-12-25T18:26:45.149Z,52.00
2018-12-25T18:29:12.710Z,52.00
2018-12-25T18:31:40.173Z,52.00
2018-12-25T18:34:07.639Z,52.00
2018-12-25T18:36:35.154Z,52.00
2018-12-25T18:39:04.004Z,52.00
2018-12-25T18:41:31.466Z,52.20
2018-12-25T18:43:58.945Z,52.40
2018-12-25T18:46:26.410Z,52.50
2018-12-25T18:48:53.877Z,52.30
2018-12-25T18:51:21.436Z,52.10
2018-12-25T18:53:48.909Z,52.00
2018-12-25T18:56:16.393Z,52.20
2018-12-25T18:58:43.878Z,52.20
2018-12-25T19:01:11.387Z,52.20
2018-12-25T19:03:38.935Z,52.30
2018-12-25T19:06:06.401Z,52.20
2018-12-25T19:08:33.878Z,52.00
2018-12-25T19:11:01.423Z,51.80
2018-12-25T19:13:28.890Z,51.70
2018-12-25T19:15:56.369Z,51.50
2018-12-25T19:18:23.973Z,51.50
2018-12-25T19:20:51.437Z,51.70
2018-12-25T19:23:18.902Z,52.20
2018-12-25T19:25:46.378Z,52.40
2018-12-25T19:28:13.890Z,52.20
2018-12-25T19:30:41.369Z,51.80
2018-12-25T19:33:08.846Z,51.80
2018-12-25T19:35:36.408Z,51.70
2018-12-25T19:38:03.951Z,51.70
2018-12-25T19:40:31.421Z,51.70
2018-12-25T19:42:59.033Z,51.90
2018-12-25T19:45:26.495Z,52.00
2018-12-25T19:47:53.962Z,51.80
2018-12-25T19:50:21.446Z,51.80
2018-12-25T19:52:48.913Z,51.80
2018-12-25T19:55:16.391Z,51.60
2018-12-25T19:57:43.918Z,51.60
2018-12-25T20:00:12.094Z,51.60
2018-12-25T20:02:40.277Z,51.90
2018-12-25T20:05:18.461Z,51.90
2018-12-25T20:08:02.568Z,51.90
2018-12-25T20:10:32.837Z,51.80
2018-12-25T20:13:17.099Z,51.40
2018-12-25T20:15:49.178Z,51.30
2018-12-25T20:18:20.999Z,51.10
2018-12-25T20:20:52.763Z,51.10
2018-12-25T20:23:27.879Z,51.10
2018-12-25T20:25:59.926Z,51.00
2018-12-25T20:28:38.289Z,50.90
2018-12-25T20:31:19.579Z,50.90
2018-12-25T20:33:48.717Z,51.00
2018-12-25T20:36:17.804Z,50.80
2018-12-25T20:38:46.915Z,50.80
2018-12-25T20:41:25.233Z,50.80
2018-12-25T20:44:06.590Z,51.40
2018-12-25T20:46:47.798Z,51.90
2018-12-25T20:49:16.956Z,52.00
2018-12-25T20:51:54.894Z,52.00
2018-12-25T20:54:29.842Z,52.00
2018-12-25T20:57:08.092Z,52.00
2018-12-25T20:59:40.762Z,52.20
2018-12-25T21:02:27.846Z,52.20
2018-12-25T21:05:13.833Z,52.00
2018-12-25T21:07:57.922Z,52.20
2018-12-25T21:10:43.735Z,52.20
2018-12-25T21:13:31.034Z,52.20
2018-12-25T21:16:00.153Z,51.90
2018-12-25T21:18:32.286Z,51.80
2018-12-25T21:21:07.090Z,51.70
2018-12-25T21:23:53.003Z,51.90
2018-12-25T21:26:38.628Z,51.70
2018-12-25T21:29:06.114Z,51.70
2018-12-25T21:31:33.579Z,51.70
2018-12-25T21:34:39.781Z,51.80
2018-12-25T21:37:08.873Z,51.80
2018-12-25T21:39:55.763Z,51.40
2018-12-25T21:42:42.814Z,51.00
2018-12-25T21:45:29.697Z,51.00
2018-12-25T21:48:16.583Z,51.00
2018-12-25T21:51:03.482Z,51.00
2018-12-25T21:53:50.373Z,51.00
2018-12-25T21:56:37.254Z,51.00
